sensor_id;sensor_type;location;lat;lon;timestamp;P1;durP1;ratioP1;P2;durP2;ratioP2
62832;SDS011;48891;49.220;6.920;2023-08-06T00:00:19;36.03;;;29.73;;
62832;SDS011;48891;49.220;6.920;2023-08-06T00:02:45;34.47;;;28.02;;
62832;SDS011;48891;49.220;6.920;2023-08-06T00:05:10;33.95;;;27.70;;
62832;SDS011;48891;49.220;6.920;2023-08-06T00:07:35;34.05;;;28.08;;
62832;SDS011;48891;49.220;6.920;2023-08-06T00:10:00;37.00;;;29.57;;
62832;SDS011;48891;49.220;6.920;2023-08-06T00:12:26;35.03;;;28.87;;
62832;SDS011;48891;49.220;6.920;2023-08-06T00:14:51;34.27;;;27.40;;
62832;SDS011;48891;49.220;6.920;2023-08-06T00:17:17;34.55;;;29.40;;
62832;SDS011;48891;49.220;6.920;2023-08-06T00:19:43;33.95;;;27.13;;
62832;SDS011;48891;49.220;6.920;2023-08-06T00:22:08;35.80;;;27.63;;
62832;SDS011;48891;49.220;6.920;2023-08-06T00:24:34;35.88;;;29.63;;
62832;SDS011;48891;49.220;6.920;2023-08-06T00:26:59;34.67;;;28.27;;
62832;SDS011;48891;49.220;6.920;2023-08-06T00:29:24;35.60;;;28.97;;
62832;SDS011;48891;49.220;6.920;2023-08-06T00:31:50;34.28;;;27.88;;
62832;SDS011;48891;49.220;6.920;2023-08-06T00:34:15;34.83;;;28.30;;
62832;SDS011;48891;49.220;6.920;2023-08-06T00:36:40;35.60;;;29.07;;
62832;SDS011;48891;49.220;6.920;2023-08-06T00:39:05;33.93;;;28.00;;
62832;SDS011;48891;49.220;6.920;2023-08-06T00:41:31;35.40;;;29.30;;
62832;SDS011;48891;49.220;6.920;2023-08-06T00:43:56;35.70;;;28.93;;
62832;SDS011;48891;49.220;6.920;2023-08-06T00:46:21;33.53;;;27.73;;
62832;SDS011;48891;49.220;6.920;2023-08-06T00:48:46;33.70;;;27.25;;
62832;SDS011;48891;49.220;6.920;2023-08-06T00:51:12;34.65;;;27.63;;
62832;SDS011;48891;49.220;6.920;2023-08-06T00:53:38;33.90;;;27.77;;
62832;SDS011;48891;49.220;6.920;2023-08-06T00:56:04;36.42;;;29.10;;
62832;SDS011;48891;49.220;6.920;2023-08-06T00:58:29;35.05;;;27.60;;
62832;SDS011;48891;49.220;6.920;2023-08-06T01:00:55;33.20;;;27.90;;
62832;SDS011;48891;49.220;6.920;2023-08-06T01:03:20;35.97;;;28.67;;
62832;SDS011;48891;49.220;6.920;2023-08-06T01:05:45;33.75;;;26.92;;
62832;SDS011;48891;49.220;6.920;2023-08-06T01:14:02;33.50;;;28.17;;
62832;SDS011;48891;49.220;6.920;2023-08-06T01:16:35;33.95;;;27.90;;
62832;SDS011;48891;49.220;6.920;2023-08-06T01:19:00;34.08;;;28.42;;
62832;SDS011;48891;49.220;6.920;2023-08-06T01:21:26;36.03;;;28.63;;
62832;SDS011;48891;49.220;6.920;2023-08-06T01:23:51;36.50;;;28.93;;
62832;SDS011;48891;49.220;6.920;2023-08-06T01:29:10;34.90;;;28.63;;
62832;SDS011;48891;49.220;6.920;2023-08-06T01:31:41;31.88;;;26.83;;
62832;SDS011;48891;49.220;6.920;2023-08-06T01:34:22;33.42;;;27.45;;
62832;SDS011;48891;49.220;6.920;2023-08-06T01:36:49;32.83;;;27.02;;
62832;SDS011;48891;49.220;6.920;2023-08-06T01:39:15;32.58;;;26.55;;
62832;SDS011;48891;49.220;6.920;2023-08-06T01:41:41;34.28;;;27.85;;
62832;SDS011;48891;49.220;6.920;2023-08-06T01:44:06;35.78;;;28.48;;
62832;SDS011;48891;49.220;6.920;2023-08-06T01:46:31;35.10;;;27.48;;
62832;SDS011;48891;49.220;6.920;2023-08-06T01:48:56;33.67;;;26.83;;
62832;SDS011;48891;49.220;6.920;2023-08-06T01:51:22;34.60;;;27.13;;
62832;SDS011;48891;49.220;6.920;2023-08-06T01:53:47;35.42;;;28.90;;
62832;SDS011;48891;49.220;6.920;2023-08-06T01:56:12;34.22;;;27.20;;
62832;SDS011;48891;49.220;6.920;2023-08-06T01:58:37;31.57;;;25.43;;
62832;SDS011;48891;49.220;6.920;2023-08-06T02:01:03;34.63;;;26.67;;
62832;SDS011;48891;49.220;6.920;2023-08-06T02:03:28;35.00;;;27.48;;
62832;SDS011;48891;49.220;6.920;2023-08-06T02:05:53;34.78;;;27.48;;
62832;SDS011;48891;49.220;6.920;2023-08-06T02:08:19;35.78;;;26.80;;
62832;SDS011;48891;49.220;6.920;2023-08-06T02:10:44;32.22;;;26.15;;
62832;SDS011;48891;49.220;6.920;2023-08-06T02:13:10;31.40;;;25.90;;
62832;SDS011;48891;49.220;6.920;2023-08-06T02:15:35;32.20;;;25.73;;
62832;SDS011;48891;49.220;6.920;2023-08-06T02:18:00;32.93;;;25.07;;
62832;SDS011;48891;49.220;6.920;2023-08-06T02:20:25;33.50;;;25.90;;
62832;SDS011;48891;49.220;6.920;2023-08-06T02:22:51;32.60;;;25.43;;
62832;SDS011;48891;49.220;6.920;2023-08-06T02:25:16;31.13;;;25.37;;
62832;SDS011;48891;49.220;6.920;2023-08-06T02:27:41;32.03;;;25.58;;
62832;SDS011;48891;49.220;6.920;2023-08-06T02:30:06;33.22;;;26.42;;
62832;SDS011;48891;49.220;6.920;2023-08-06T02:32:32;31.52;;;26.17;;
62832;SDS011;48891;49.220;6.920;2023-08-06T02:34:57;32.78;;;25.25;;
62832;SDS011;48891;49.220;6.920;2023-08-06T02:37:22;32.78;;;26.33;;
62832;SDS011;48891;49.220;6.920;2023-08-06T02:39:48;32.65;;;25.42;;
62832;SDS011;48891;49.220;6.920;2023-08-06T02:42:13;32.03;;;25.63;;
62832;SDS011;48891;49.220;6.920;2023-08-06T02:44:38;32.65;;;24.30;;
62832;SDS011;48891;49.220;6.920;2023-08-06T02:47:03;30.77;;;24.57;;
62832;SDS011;48891;49.220;6.920;2023-08-06T02:49:29;30.63;;;24.15;;
62832;SDS011;48891;49.220;6.920;2023-08-06T02:51:54;31.57;;;24.17;;
62832;SDS011;48891;49.220;6.920;2023-08-06T02:54:19;30.30;;;24.23;;
62832;SDS011;48891;49.220;6.920;2023-08-06T02:56:45;30.05;;;23.88;;
62832;SDS011;48891;49.220;6.920;2023-08-06T02:59:11;29.20;;;23.52;;
62832;SDS011;48891;49.220;6.920;2023-08-06T03:01:36;30.65;;;23.98;;
62832;SDS011;48891;49.220;6.920;2023-08-06T03:04:01;29.85;;;24.23;;
62832;SDS011;48891;49.220;6.920;2023-08-06T03:06:27;32.13;;;25.45;;
62832;SDS011;48891;49.220;6.920;2023-08-06T03:08:52;29.63;;;24.02;;
62832;SDS011;48891;49.220;6.920;2023-08-06T03:11:17;31.47;;;24.43;;
62832;SDS011;48891;49.220;6.920;2023-08-06T03:13:43;25.53;;;21.60;;
62832;SDS011;48891;49.220;6.920;2023-08-06T03:16:08;30.83;;;23.05;;
62832;SDS011;48891;49.220;6.920;2023-08-06T03:18:33;29.05;;;22.95;;
62832;SDS011;48891;49.220;6.920;2023-08-06T03:20:58;28.65;;;23.90;;
62832;SDS011;48891;49.220;6.920;2023-08-06T03:23:24;29.73;;;23.00;;
62832;SDS011;48891;49.220;6.920;2023-08-06T03:25:49;29.40;;;23.17;;
62832;SDS011;48891;49.220;6.920;2023-08-06T03:28:14;29.40;;;23.17;;
62832;SDS011;48891;49.220;6.920;2023-08-06T03:30:39;29.33;;;22.20;;
62832;SDS011;48891;49.220;6.920;2023-08-06T03:33:05;29.37;;;23.00;;
62832;SDS011;48891;49.220;6.920;2023-08-06T03:35:30;29.23;;;22.02;;
62832;SDS011;48891;49.220;6.920;2023-08-06T03:37:55;30.60;;;23.48;;
62832;SDS011;48891;49.220;6.920;2023-08-06T03:40:20;27.48;;;22.42;;
62832;SDS011;48891;49.220;6.920;2023-08-06T03:42:46;28.73;;;22.20;;
62832;SDS011;48891;49.220;6.920;2023-08-06T03:45:11;25.52;;;20.92;;
62832;SDS011;48891;49.220;6.920;2023-08-06T03:47:36;27.75;;;21.50;;
62832;SDS011;48891;49.220;6.920;2023-08-06T03:50:01;28.88;;;22.50;;
62832;SDS011;48891;49.220;6.920;2023-08-06T03:52:27;28.08;;;21.60;;
62832;SDS011;48891;49.220;6.920;2023-08-06T03:54:52;25.80;;;20.57;;
62832;SDS011;48891;49.220;6.920;2023-08-06T03:57:17;25.80;;;20.75;;
62832;SDS011;48891;49.220;6.920;2023-08-06T03:59:43;26.48;;;20.35;;
62832;SDS011;48891;49.220;6.920;2023-08-06T04:02:08;26.92;;;21.23;;
62832;SDS011;48891;49.220;6.920;2023-08-06T04:04:33;27.00;;;21.70;;
62832;SDS011;48891;49.220;6.920;2023-08-06T04:06:58;24.97;;;19.77;;
62832;SDS011;48891;49.220;6.920;2023-08-06T04:09:24;26.17;;;20.80;;
62832;SDS011;48891;49.220;6.920;2023-08-06T04:11:49;26.58;;;20.20;;
62832;SDS011;48891;49.220;6.920;2023-08-06T04:14:14;25.77;;;19.77;;
62832;SDS011;48891;49.220;6.920;2023-08-06T04:16:39;26.17;;;20.02;;
62832;SDS011;48891;49.220;6.920;2023-08-06T04:19:04;26.52;;;19.85;;
62832;SDS011;48891;49.220;6.920;2023-08-06T04:21:30;24.60;;;19.30;;
62832;SDS011;48891;49.220;6.920;2023-08-06T04:23:55;25.67;;;20.67;;
62832;SDS011;48891;49.220;6.920;2023-08-06T04:26:21;25.60;;;19.13;;
62832;SDS011;48891;49.220;6.920;2023-08-06T04:28:46;24.40;;;20.05;;
62832;SDS011;48891;49.220;6.920;2023-08-06T04:31:12;24.55;;;18.67;;
62832;SDS011;48891;49.220;6.920;2023-08-06T04:33:37;25.20;;;19.50;;
62832;SDS011;48891;49.220;6.920;2023-08-06T04:36:02;22.05;;;18.65;;
62832;SDS011;48891;49.220;6.920;2023-08-06T04:38:28;21.50;;;17.95;;
62832;SDS011;48891;49.220;6.920;2023-08-06T04:40:53;24.63;;;18.58;;
62832;SDS011;48891;49.220;6.920;2023-08-06T04:43:18;24.83;;;18.38;;
62832;SDS011;48891;49.220;6.920;2023-08-06T04:45:50;23.50;;;18.63;;
62832;SDS011;48891;49.220;6.920;2023-08-06T04:48:17;22.13;;;18.30;;
62832;SDS011;48891;49.220;6.920;2023-08-06T04:50:43;22.98;;;18.38;;
62832;SDS011;48891;49.220;6.920;2023-08-06T04:53:11;22.83;;;18.08;;
62832;SDS011;48891;49.220;6.920;2023-08-06T04:55:37;22.83;;;17.73;;
62832;SDS011;48891;49.220;6.920;2023-08-06T04:58:02;23.02;;;17.02;;
62832;SDS011;48891;49.220;6.920;2023-08-06T05:00:28;23.65;;;18.30;;
62832;SDS011;48891;49.220;6.920;2023-08-06T05:02:53;23.08;;;18.13;;
62832;SDS011;48891;49.220;6.920;2023-08-06T05:05:18;23.50;;;17.60;;
62832;SDS011;48891;49.220;6.920;2023-08-06T05:07:45;21.85;;;17.50;;
62832;SDS011;48891;49.220;6.920;2023-08-06T05:10:10;21.23;;;17.30;;
62832;SDS011;48891;49.220;6.920;2023-08-06T05:12:35;20.13;;;16.70;;
62832;SDS011;48891;49.220;6.920;2023-08-06T05:15:00;21.08;;;16.85;;
62832;SDS011;48891;49.220;6.920;2023-08-06T05:17:26;21.27;;;16.97;;
62832;SDS011;48891;49.220;6.920;2023-08-06T05:19:51;21.17;;;17.10;;
62832;SDS011;48891;49.220;6.920;2023-08-06T05:22:17;19.23;;;15.77;;
62832;SDS011;48891;49.220;6.920;2023-08-06T05:24:42;21.95;;;16.38;;
62832;SDS011;48891;49.220;6.920;2023-08-06T05:27:07;21.57;;;16.73;;
62832;SDS011;48891;49.220;6.920;2023-08-06T05:29:32;21.50;;;16.40;;
62832;SDS011;48891;49.220;6.920;2023-08-06T05:31:58;19.45;;;16.08;;
62832;SDS011;48891;49.220;6.920;2023-08-06T05:34:23;20.77;;;15.63;;
62832;SDS011;48891;49.220;6.920;2023-08-06T05:36:48;20.20;;;15.83;;
62832;SDS011;48891;49.220;6.920;2023-08-06T05:39:13;20.40;;;15.67;;
62832;SDS011;48891;49.220;6.920;2023-08-06T05:41:38;20.73;;;15.27;;
62832;SDS011;48891;49.220;6.920;2023-08-06T05:44:04;18.80;;;14.80;;
62832;SDS011;48891;49.220;6.920;2023-08-06T05:46:29;19.13;;;15.25;;
62832;SDS011;48891;49.220;6.920;2023-08-06T05:48:54;19.50;;;15.02;;
62832;SDS011;48891;49.220;6.920;2023-08-06T05:51:19;21.20;;;15.70;;
62832;SDS011;48891;49.220;6.920;2023-08-06T05:53:44;18.38;;;15.50;;
62832;SDS011;48891;49.220;6.920;2023-08-06T05:56:10;19.33;;;15.37;;
62832;SDS011;48891;49.220;6.920;2023-08-06T05:58:35;21.60;;;15.65;;
62832;SDS011;48891;49.220;6.920;2023-08-06T06:01:00;19.07;;;14.90;;
62832;SDS011;48891;49.220;6.920;2023-08-06T06:03:26;18.83;;;14.98;;
62832;SDS011;48891;49.220;6.920;2023-08-06T06:05:51;18.83;;;14.23;;
62832;SDS011;48891;49.220;6.920;2023-08-06T06:08:16;18.23;;;14.10;;
62832;SDS011;48891;49.220;6.920;2023-08-06T06:10:42;17.08;;;14.00;;
62832;SDS011;48891;49.220;6.920;2023-08-06T06:13:07;18.25;;;13.98;;
62832;SDS011;48891;49.220;6.920;2023-08-06T06:15:32;17.35;;;13.63;;
62832;SDS011;48891;49.220;6.920;2023-08-06T06:17:57;17.70;;;13.65;;
62832;SDS011;48891;49.220;6.920;2023-08-06T06:20:23;18.13;;;14.33;;
62832;SDS011;48891;49.220;6.920;2023-08-06T06:22:48;20.20;;;14.17;;
62832;SDS011;48891;49.220;6.920;2023-08-06T06:25:13;17.85;;;13.95;;
62832;SDS011;48891;49.220;6.920;2023-08-06T06:27:38;18.92;;;13.48;;
62832;SDS011;48891;49.220;6.920;2023-08-06T06:30:04;16.88;;;12.60;;
62832;SDS011;48891;49.220;6.920;2023-08-06T06:32:29;16.33;;;13.00;;
62832;SDS011;48891;49.220;6.920;2023-08-06T06:34:55;18.20;;;13.60;;
62832;SDS011;48891;49.220;6.920;2023-08-06T06:37:20;17.23;;;12.98;;
62832;SDS011;48891;49.220;6.920;2023-08-06T06:39:45;16.13;;;12.23;;
62832;SDS011;48891;49.220;6.920;2023-08-06T06:42:10;16.35;;;13.07;;
62832;SDS011;48891;49.220;6.920;2023-08-06T06:44:35;16.70;;;13.10;;
62832;SDS011;48891;49.220;6.920;2023-08-06T06:47:01;17.55;;;13.18;;
62832;SDS011;48891;49.220;6.920;2023-08-06T06:49:26;15.90;;;11.85;;
62832;SDS011;48891;49.220;6.920;2023-08-06T06:51:51;17.40;;;13.07;;
62832;SDS011;48891;49.220;6.920;2023-08-06T06:54:17;16.55;;;12.38;;
62832;SDS011;48891;49.220;6.920;2023-08-06T06:56:42;16.90;;;13.10;;
62832;SDS011;48891;49.220;6.920;2023-08-06T06:59:07;16.30;;;12.07;;
62832;SDS011;48891;49.220;6.920;2023-08-06T07:01:32;15.23;;;11.80;;
62832;SDS011;48891;49.220;6.920;2023-08-06T07:03:58;15.93;;;11.43;;
62832;SDS011;48891;49.220;6.920;2023-08-06T07:06:23;17.02;;;12.73;;
62832;SDS011;48891;49.220;6.920;2023-08-06T07:08:48;15.45;;;12.48;;
62832;SDS011;48891;49.220;6.920;2023-08-06T07:11:13;15.02;;;11.70;;
62832;SDS011;48891;49.220;6.920;2023-08-06T07:13:39;16.42;;;12.70;;
62832;SDS011;48891;49.220;6.920;2023-08-06T07:16:04;14.55;;;11.18;;
62832;SDS011;48891;49.220;6.920;2023-08-06T07:18:29;15.43;;;12.23;;
62832;SDS011;48891;49.220;6.920;2023-08-06T07:20:54;14.55;;;11.85;;
62832;SDS011;48891;49.220;6.920;2023-08-06T07:23:20;14.63;;;11.68;;
62832;SDS011;48891;49.220;6.920;2023-08-06T07:25:47;14.73;;;11.07;;
62832;SDS011;48891;49.220;6.920;2023-08-06T07:28:16;14.50;;;11.10;;
62832;SDS011;48891;49.220;6.920;2023-08-06T07:30:41;14.68;;;11.18;;
62832;SDS011;48891;49.220;6.920;2023-08-06T07:33:07;15.90;;;12.20;;
62832;SDS011;48891;49.220;6.920;2023-08-06T07:35:33;14.13;;;11.25;;
62832;SDS011;48891;49.220;6.920;2023-08-06T07:37:59;14.93;;;11.70;;
62832;SDS011;48891;49.220;6.920;2023-08-06T07:40:24;14.45;;;11.95;;
62832;SDS011;48891;49.220;6.920;2023-08-06T07:42:49;12.50;;;10.63;;
62832;SDS011;48891;49.220;6.920;2023-08-06T07:45:14;15.23;;;11.10;;
62832;SDS011;48891;49.220;6.920;2023-08-06T07:47:40;15.00;;;11.73;;
62832;SDS011;48891;49.220;6.920;2023-08-06T07:50:05;14.80;;;11.55;;
62832;SDS011;48891;49.220;6.920;2023-08-06T07:52:31;15.02;;;11.95;;
62832;SDS011;48891;49.220;6.920;2023-08-06T07:54:56;14.90;;;11.27;;
62832;SDS011;48891;49.220;6.920;2023-08-06T07:57:21;13.85;;;11.30;;
62832;SDS011;48891;49.220;6.920;2023-08-06T07:59:47;15.07;;;11.70;;
62832;SDS011;48891;49.220;6.920;2023-08-06T08:02:12;15.73;;;12.10;;
62832;SDS011;48891;49.220;6.920;2023-08-06T08:04:37;13.57;;;11.80;;
62832;SDS011;48891;49.220;6.920;2023-08-06T08:07:02;13.50;;;11.20;;
62832;SDS011;48891;49.220;6.920;2023-08-06T08:09:28;15.30;;;11.40;;
62832;SDS011;48891;49.220;6.920;2023-08-06T08:11:53;14.98;;;12.05;;
62832;SDS011;48891;49.220;6.920;2023-08-06T08:14:18;15.00;;;11.80;;
62832;SDS011;48891;49.220;6.920;2023-08-06T08:16:43;13.60;;;11.27;;
62832;SDS011;48891;49.220;6.920;2023-08-06T08:19:09;15.23;;;11.93;;
62832;SDS011;48891;49.220;6.920;2023-08-06T08:21:34;14.38;;;11.68;;
62832;SDS011;48891;49.220;6.920;2023-08-06T08:23:59;15.57;;;12.20;;
62832;SDS011;48891;49.220;6.920;2023-08-06T08:26:25;13.07;;;11.02;;
62832;SDS011;48891;49.220;6.920;2023-08-06T08:28:51;15.38;;;12.57;;
62832;SDS011;48891;49.220;6.920;2023-08-06T08:31:16;14.57;;;11.53;;
62832;SDS011;48891;49.220;6.920;2023-08-06T08:33:41;14.25;;;11.43;;
62832;SDS011;48891;49.220;6.920;2023-08-06T08:36:06;14.88;;;11.43;;
62832;SDS011;48891;49.220;6.920;2023-08-06T08:38:31;14.15;;;11.40;;
62832;SDS011;48891;49.220;6.920;2023-08-06T08:40:57;15.98;;;12.25;;
62832;SDS011;48891;49.220;6.920;2023-08-06T08:43:22;15.27;;;11.82;;
62832;SDS011;48891;49.220;6.920;2023-08-06T08:45:51;15.75;;;11.52;;
62832;SDS011;48891;49.220;6.920;2023-08-06T08:48:18;16.60;;;12.18;;
62832;SDS011;48891;49.220;6.920;2023-08-06T08:50:44;14.05;;;11.15;;
62832;SDS011;48891;49.220;6.920;2023-08-06T08:53:11;13.45;;;11.02;;
62832;SDS011;48891;49.220;6.920;2023-08-06T08:55:38;14.70;;;11.67;;
62832;SDS011;48891;49.220;6.920;2023-08-06T08:58:05;14.57;;;11.85;;
62832;SDS011;48891;49.220;6.920;2023-08-06T09:00:30;15.02;;;11.82;;
62832;SDS011;48891;49.220;6.920;2023-08-06T09:02:56;15.65;;;12.35;;
62832;SDS011;48891;49.220;6.920;2023-08-06T09:05:23;14.35;;;12.00;;
62832;SDS011;48891;49.220;6.920;2023-08-06T09:07:52;14.27;;;11.23;;
62832;SDS011;48891;49.220;6.920;2023-08-06T09:10:17;14.88;;;10.98;;
62832;SDS011;48891;49.220;6.920;2023-08-06T09:12:45;14.40;;;12.07;;
62832;SDS011;48891;49.220;6.920;2023-08-06T09:15:11;13.57;;;10.95;;
62832;SDS011;48891;49.220;6.920;2023-08-06T09:17:37;14.43;;;11.23;;
62832;SDS011;48891;49.220;6.920;2023-08-06T09:20:11;14.07;;;11.77;;
62832;SDS011;48891;49.220;6.920;2023-08-06T09:22:37;13.90;;;10.98;;
62832;SDS011;48891;49.220;6.920;2023-08-06T09:25:03;14.82;;;11.93;;
62832;SDS011;48891;49.220;6.920;2023-08-06T09:27:29;13.73;;;11.30;;
62832;SDS011;48891;49.220;6.920;2023-08-06T09:29:54;15.07;;;11.95;;
62832;SDS011;48891;49.220;6.920;2023-08-06T09:32:19;13.80;;;11.13;;
62832;SDS011;48891;49.220;6.920;2023-08-06T09:34:45;15.18;;;11.73;;
62832;SDS011;48891;49.220;6.920;2023-08-06T09:37:11;14.43;;;11.32;;
62832;SDS011;48891;49.220;6.920;2023-08-06T09:39:37;14.10;;;11.27;;
62832;SDS011;48891;49.220;6.920;2023-08-06T09:42:03;15.10;;;11.47;;
62832;SDS011;48891;49.220;6.920;2023-08-06T09:44:30;15.20;;;11.88;;
62832;SDS011;48891;49.220;6.920;2023-08-06T09:46:57;13.88;;;11.68;;
62832;SDS011;48891;49.220;6.920;2023-08-06T09:49:28;13.90;;;11.38;;
62832;SDS011;48891;49.220;6.920;2023-08-06T09:52:04;14.80;;;11.25;;
62832;SDS011;48891;49.220;6.920;2023-08-06T09:54:30;13.85;;;11.13;;
62832;SDS011;48891;49.220;6.920;2023-08-06T09:56:57;13.65;;;11.38;;
62832;SDS011;48891;49.220;6.920;2023-08-06T09:59:23;14.23;;;11.50;;
62832;SDS011;48891;49.220;6.920;2023-08-06T10:01:49;13.02;;;10.23;;
62832;SDS011;48891;49.220;6.920;2023-08-06T10:04:15;12.23;;;10.90;;
62832;SDS011;48891;49.220;6.920;2023-08-06T10:06:40;15.18;;;11.82;;
62832;SDS011;48891;49.220;6.920;2023-08-06T10:09:06;13.55;;;11.30;;
62832;SDS011;48891;49.220;6.920;2023-08-06T10:11:32;14.80;;;10.80;;
62832;SDS011;48891;49.220;6.920;2023-08-06T10:14:06;13.02;;;11.02;;
62832;SDS011;48891;49.220;6.920;2023-08-06T10:16:38;14.20;;;11.02;;
62832;SDS011;48891;49.220;6.920;2023-08-06T10:19:04;13.32;;;11.05;;
62832;SDS011;48891;49.220;6.920;2023-08-06T10:21:33;12.68;;;10.57;;
62832;SDS011;48891;49.220;6.920;2023-08-06T10:23:58;14.25;;;11.43;;
62832;SDS011;48891;49.220;6.920;2023-08-06T10:26:27;14.90;;;11.50;;
62832;SDS011;48891;49.220;6.920;2023-08-06T10:28:53;14.57;;;10.85;;
62832;SDS011;48891;49.220;6.920;2023-08-06T10:31:19;13.35;;;10.77;;
62832;SDS011;48891;49.220;6.920;2023-08-06T10:33:47;13.38;;;11.05;;
62832;SDS011;48891;49.220;6.920;2023-08-06T10:36:13;13.07;;;10.40;;
62832;SDS011;48891;49.220;6.920;2023-08-06T10:38:46;12.98;;;10.07;;
62832;SDS011;48891;49.220;6.920;2023-08-06T10:41:23;13.48;;;10.75;;
62832;SDS011;48891;49.220;6.920;2023-08-06T10:43:52;12.88;;;10.32;;
62832;SDS011;48891;49.220;6.920;2023-08-06T10:46:30;12.98;;;10.65;;
62832;SDS011;48891;49.220;6.920;2023-08-06T10:48:56;13.20;;;10.65;;
62832;SDS011;48891;49.220;6.920;2023-08-06T10:51:21;14.10;;;10.50;;
62832;SDS011;48891;49.220;6.920;2023-08-06T10:53:47;12.80;;;10.90;;
62832;SDS011;48891;49.220;6.920;2023-08-06T10:56:16;13.85;;;11.57;;
62832;SDS011;48891;49.220;6.920;2023-08-06T10:58:45;13.65;;;11.05;;
62832;SDS011;48891;49.220;6.920;2023-08-06T11:01:11;13.93;;;11.40;;
62832;SDS011;48891;49.220;6.920;2023-08-06T11:03:38;14.52;;;11.32;;
62832;SDS011;48891;49.220;6.920;2023-08-06T11:06:03;14.43;;;11.02;;
62832;SDS011;48891;49.220;6.920;2023-08-06T11:08:33;13.40;;;11.18;;
62832;SDS011;48891;49.220;6.920;2023-08-06T11:11:12;13.70;;;11.27;;
62832;SDS011;48891;49.220;6.920;2023-08-06T11:13:42;12.35;;;9.77;;
62832;SDS011;48891;49.220;6.920;2023-08-06T11:16:12;13.30;;;10.85;;
62832;SDS011;48891;49.220;6.920;2023-08-06T11:18:39;13.15;;;10.93;;
62832;SDS011;48891;49.220;6.920;2023-08-06T11:21:05;14.10;;;11.07;;
62832;SDS011;48891;49.220;6.920;2023-08-06T11:23:30;15.02;;;11.30;;
62832;SDS011;48891;49.220;6.920;2023-08-06T11:25:56;13.68;;;10.93;;
62832;SDS011;48891;49.220;6.920;2023-08-06T11:28:22;12.52;;;10.52;;
62832;SDS011;48891;49.220;6.920;2023-08-06T11:30:48;13.68;;;11.15;;
62832;SDS011;48891;49.220;6.920;2023-08-06T11:33:13;13.52;;;10.80;;
62832;SDS011;48891;49.220;6.920;2023-08-06T11:35:39;12.65;;;10.98;;
62832;SDS011;48891;49.220;6.920;2023-08-06T11:38:04;13.43;;;11.05;;
62832;SDS011;48891;49.220;6.920;2023-08-06T11:40:29;12.38;;;10.43;;
62832;SDS011;48891;49.220;6.920;2023-08-06T11:42:56;13.35;;;10.90;;
62832;SDS011;48891;49.220;6.920;2023-08-06T11:45:23;13.30;;;11.05;;
62832;SDS011;48891;49.220;6.920;2023-08-06T11:47:49;14.05;;;11.02;;
62832;SDS011;48891;49.220;6.920;2023-08-06T11:50:22;12.55;;;11.23;;
62832;SDS011;48891;49.220;6.920;2023-08-06T11:52:48;13.23;;;10.68;;
62832;SDS011;48891;49.220;6.920;2023-08-06T11:55:18;12.75;;;10.65;;
62832;SDS011;48891;49.220;6.920;2023-08-06T11:57:48;14.63;;;10.82;;
62832;SDS011;48891;49.220;6.920;2023-08-06T12:00:14;14.27;;;11.38;;
62832;SDS011;48891;49.220;6.920;2023-08-06T12:02:40;12.35;;;10.32;;
62832;SDS011;48891;49.220;6.920;2023-08-06T12:05:13;12.90;;;11.13;;
62832;SDS011;48891;49.220;6.920;2023-08-06T12:07:47;13.80;;;10.95;;
62832;SDS011;48891;49.220;6.920;2023-08-06T12:10:13;13.27;;;10.73;;
62832;SDS011;48891;49.220;6.920;2023-08-06T12:12:40;12.95;;;10.77;;
62832;SDS011;48891;49.220;6.920;2023-08-06T12:15:06;12.23;;;10.48;;
62832;SDS011;48891;49.220;6.920;2023-08-06T12:17:32;12.10;;;9.95;;
62832;SDS011;48891;49.220;6.920;2023-08-06T12:19:57;13.05;;;11.30;;
62832;SDS011;48891;49.220;6.920;2023-08-06T12:22:23;13.68;;;11.20;;
62832;SDS011;48891;49.220;6.920;2023-08-06T12:24:48;12.15;;;10.45;;
62832;SDS011;48891;49.220;6.920;2023-08-06T12:27:14;12.98;;;10.13;;
62832;SDS011;48891;49.220;6.920;2023-08-06T12:29:43;12.70;;;10.77;;
62832;SDS011;48891;49.220;6.920;2023-08-06T12:32:09;13.73;;;10.40;;
62832;SDS011;48891;49.220;6.920;2023-08-06T12:34:35;12.65;;;10.52;;
62832;SDS011;48891;49.220;6.920;2023-08-06T12:37:01;12.52;;;10.13;;
62832;SDS011;48891;49.220;6.920;2023-08-06T12:39:27;13.07;;;10.25;;
62832;SDS011;48891;49.220;6.920;2023-08-06T12:41:52;12.90;;;10.73;;
62832;SDS011;48891;49.220;6.920;2023-08-06T12:44:17;13.57;;;10.38;;
62832;SDS011;48891;49.220;6.920;2023-08-06T12:46:43;12.25;;;9.48;;
62832;SDS011;48891;49.220;6.920;2023-08-06T12:49:08;12.85;;;10.30;;
62832;SDS011;48891;49.220;6.920;2023-08-06T12:51:33;12.30;;;10.23;;
62832;SDS011;48891;49.220;6.920;2023-08-06T12:53:58;10.60;;;9.50;;
62832;SDS011;48891;49.220;6.920;2023-08-06T12:56:24;12.75;;;10.38;;
62832;SDS011;48891;49.220;6.920;2023-08-06T12:58:49;12.70;;;10.90;;
62832;SDS011;48891;49.220;6.920;2023-08-06T13:01:14;13.45;;;11.07;;
62832;SDS011;48891;49.220;6.920;2023-08-06T13:03:39;12.67;;;10.13;;
62832;SDS011;48891;49.220;6.920;2023-08-06T13:06:05;10.95;;;9.32;;
62832;SDS011;48891;49.220;6.920;2023-08-06T13:08:30;11.95;;;10.23;;
62832;SDS011;48891;49.220;6.920;2023-08-06T13:10:55;12.13;;;9.82;;
62832;SDS011;48891;49.220;6.920;2023-08-06T13:13:20;11.75;;;10.18;;
62832;SDS011;48891;49.220;6.920;2023-08-06T13:15:46;11.63;;;9.93;;
62832;SDS011;48891;49.220;6.920;2023-08-06T13:18:11;11.27;;;9.60;;
62832;SDS011;48891;49.220;6.920;2023-08-06T13:20:37;10.18;;;9.13;;
62832;SDS011;48891;49.220;6.920;2023-08-06T13:23:03;11.15;;;9.75;;
62832;SDS011;48891;49.220;6.920;2023-08-06T13:25:29;11.57;;;9.88;;
62832;SDS011;48891;49.220;6.920;2023-08-06T13:27:54;11.53;;;10.00;;
62832;SDS011;48891;49.220;6.920;2023-08-06T13:30:19;11.70;;;9.48;;
62832;SDS011;48891;49.220;6.920;2023-08-06T13:32:45;11.00;;;9.80;;
62832;SDS011;48891;49.220;6.920;2023-08-06T13:35:10;11.68;;;9.45;;
62832;SDS011;48891;49.220;6.920;2023-08-06T13:37:35;11.05;;;9.40;;
62832;SDS011;48891;49.220;6.920;2023-08-06T13:40:00;12.52;;;10.13;;
62832;SDS011;48891;49.220;6.920;2023-08-06T13:42:26;12.07;;;9.57;;
62832;SDS011;48891;49.220;6.920;2023-08-06T13:44:51;11.13;;;9.40;;
62832;SDS011;48891;49.220;6.920;2023-08-06T13:47:16;12.65;;;9.73;;
62832;SDS011;48891;49.220;6.920;2023-08-06T13:49:42;11.18;;;9.32;;
62832;SDS011;48891;49.220;6.920;2023-08-06T13:52:07;11.48;;;9.90;;
62832;SDS011;48891;49.220;6.920;2023-08-06T13:54:32;11.00;;;9.20;;
62832;SDS011;48891;49.220;6.920;2023-08-06T13:56:57;10.97;;;9.20;;
62832;SDS011;48891;49.220;6.920;2023-08-06T13:59:22;10.60;;;9.17;;
62832;SDS011;48891;49.220;6.920;2023-08-06T14:01:48;11.00;;;9.40;;
62832;SDS011;48891;49.220;6.920;2023-08-06T14:04:13;11.00;;;8.87;;
62832;SDS011;48891;49.220;6.920;2023-08-06T14:06:38;11.65;;;9.18;;
62832;SDS011;48891;49.220;6.920;2023-08-06T14:09:03;9.80;;;8.60;;
62832;SDS011;48891;49.220;6.920;2023-08-06T14:11:29;10.18;;;8.15;;
62832;SDS011;48891;49.220;6.920;2023-08-06T14:13:54;11.02;;;9.02;;
62832;SDS011;48891;49.220;6.920;2023-08-06T14:16:19;10.75;;;8.63;;
62832;SDS011;48891;49.220;6.920;2023-08-06T14:18:44;10.73;;;8.60;;
62832;SDS011;48891;49.220;6.920;2023-08-06T14:21:10;11.48;;;8.90;;
62832;SDS011;48891;49.220;6.920;2023-08-06T14:23:35;10.32;;;8.75;;